createdAt,value
2023-11-17T00:00:00.673Z,100366.28
2023-11-17T00:02:27.403Z,100372.41
2023-11-17T00:04:53.970Z,100371.34
2023-11-17T00:07:20.546Z,100378.44
2023-11-17T00:09:47.254Z,100379.97
2023-11-17T00:12:14.048Z,100368.13
2023-11-17T00:14:40.641Z,100368.59
2023-11-17T00:17:08.043Z,100373.72
2023-11-17T00:19:34.589Z,100365.84
2023-11-17T00:22:01.095Z,100364.81
2023-11-17T00:24:28.783Z,100351.41
2023-11-17T00:26:55.266Z,100353.91
2023-11-17T00:29:21.791Z,100352.19
2023-11-17T00:31:48.266Z,100345.09
2023-11-17T00:34:16.004Z,100357.50
2023-11-17T00:36:48.320Z,100371.38
2023-11-17T00:39:18.278Z,100364.72
2023-11-17T00:41:45.258Z,100368.56
2023-11-17T00:44:12.891Z,100361.34
2023-11-17T00:46:39.635Z,100369.88
2023-11-17T00:49:06.331Z,100358.97
2023-11-17T00:51:34.481Z,100350.13
2023-11-17T00:54:01.567Z,100348.06
2023-11-17T00:56:28.291Z,100344.28
2023-11-17T00:58:54.877Z,100346.50
2023-11-17T01:01:24.026Z,100351.22
2023-11-17T01:03:50.773Z,100353.38
2023-11-17T01:06:17.349Z,100351.31
2023-11-17T01:08:43.793Z,100351.72
2023-11-17T01:11:13.188Z,100344.25
2023-11-17T01:13:40.599Z,100339.44
2023-11-17T01:16:07.418Z,100348.03
2023-11-17T01:18:33.960Z,100347.53
2023-11-17T01:21:00.437Z,100335.03
2023-11-17T01:23:28.319Z,100323.00
2023-11-17T01:25:55.328Z,100314.88
2023-11-17T01:28:21.822Z,100319.59
2023-11-17T01:30:48.369Z,100325.00
2023-11-17T01:33:14.833Z,100330.84
2023-11-17T01:35:41.271Z,100325.56
2023-11-17T01:38:08.527Z,100320.63
2023-11-17T01:40:35.002Z,100313.84
2023-11-17T01:43:12.481Z,100325.28
2023-11-17T01:45:40.736Z,100318.81
2023-11-17T01:48:08.653Z,100315.66
2023-11-17T01:50:35.702Z,100309.22
2023-11-17T01:53:02.343Z,100310.03
2023-11-17T01:55:28.885Z,100315.59
2023-11-17T01:57:56.587Z,100308.75
2023-11-17T02:00:23.134Z,100308.28
2023-11-17T02:02:52.787Z,100304.06
2023-11-17T02:05:22.374Z,100299.13
2023-11-17T02:08:01.001Z,100311.78
2023-11-17T02:10:56.026Z,100307.94
2023-11-17T02:13:27.427Z,100305.72
2023-11-17T02:15:56.127Z,100302.75
2023-11-17T02:18:24.327Z,100294.28
2023-11-17T02:20:54.195Z,100294.53
2023-11-17T02:23:25.978Z,100295.09
2023-11-17T02:26:32.953Z,100293.63
2023-11-17T02:29:08.090Z,100295.19
2023-11-17T02:31:37.235Z,100286.41
2023-11-17T02:34:07.813Z,100286.22
2023-11-17T02:36:34.612Z,100281.56
2023-11-17T02:39:15.372Z,100272.09
2023-11-17T02:41:57.956Z,100265.34
2023-11-17T02:44:29.619Z,100260.41
2023-11-17T02:47:00.624Z,100261.47
2023-11-17T02:49:35.608Z,100256.38
2023-11-17T02:52:10.283Z,100258.00
2023-11-17T02:54:38.935Z,100264.81
2023-11-17T02:57:06.422Z,100270.13
2023-11-17T02:59:36.795Z,100267.06
2023-11-17T03:02:04.214Z,100266.50
2023-11-17T03:04:31.428Z,100267.41
2023-11-17T03:07:02.780Z,100271.91
2023-11-17T03:09:31.361Z,100269.34
2023-11-17T03:12:00.650Z,100257.63
2023-11-17T03:14:28.320Z,100264.69
2023-11-17T03:17:01.561Z,100256.69
2023-11-17T03:19:29.146Z,100261.47
2023-11-17T03:21:55.886Z,100270.22
2023-11-17T03:24:24.846Z,100262.47
2023-11-17T03:26:53.626Z,100268.28
2023-11-17T03:29:22.158Z,100269.81
2023-11-17T03:31:56.093Z,100256.31
2023-11-17T03:34:33.147Z,100246.69
2023-11-17T03:37:02.834Z,100243.81
2023-11-17T03:39:30.415Z,100244.31
2023-11-17T03:41:58.203Z,100245.50
2023-11-17T03:44:29.136Z,100245.56
2023-11-17T03:46:56.184Z,100255.47
2023-11-17T03:49:23.082Z,100250.97
2023-11-17T03:51:50.584Z,100246.75
2023-11-17T03:54:17.931Z,100240.75
2023-11-17T03:56:46.098Z,100240.31
2023-11-17T03:59:14.564Z,100238.22
2023-11-17T04:01:44.492Z,100244.09
2023-11-17T04:04:11.208Z,100261.25
2023-11-17T04:06:37.771Z,100274.81
2023-11-17T04:09:17.243Z,100270.41
2023-11-17T04:11:44.444Z,100267.88
2023-11-17T04:14:10.945Z,100279.44
2023-11-17T04:16:38.492Z,100285.59
2023-11-17T04:19:05.529Z,100284.53
2023-11-17T04:21:32.405Z,100287.44
2023-11-17T04:23:58.821Z,100298.84
2023-11-17T04:26:25.286Z,100306.41
2023-11-17T04:28:51.783Z,100295.91
2023-11-17T04:31:19.729Z,100306.59
2023-11-17T04:33:46.269Z,100310.66
2023-11-17T04:36:12.816Z,100311.09
2023-11-17T04:38:39.560Z,100316.38
2023-11-17T04:41:06.122Z,100327.22
2023-11-17T04:43:32.823Z,100323.28
2023-11-17T04:45:59.417Z,100327.16
2023-11-17T04:48:26.017Z,100349.91
2023-11-17T04:50:53.179Z,100334.13
2023-11-17T04:53:19.658Z,100332.63
2023-11-17T04:55:48.799Z,100330.22
2023-11-17T04:58:15.523Z,100333.38
2023-11-17T05:00:42.814Z,100315.94
2023-11-17T05:03:09.497Z,100314.91
2023-11-17T05:05:36.017Z,100315.78
2023-11-17T05:08:02.467Z,100314.00
2023-11-17T05:10:29.082Z,100314.59
2023-11-17T05:12:55.565Z,100325.00
2023-11-17T05:15:22.238Z,100327.72
2023-11-17T05:17:49.999Z,100327.81
2023-11-17T05:20:20.927Z,100333.53
2023-11-17T05:22:48.993Z,100321.97
2023-11-17T05:25:17.015Z,100330.53
2023-11-17T05:27:47.098Z,100333.25
2023-11-17T05:30:15.160Z,100342.28
2023-11-17T05:32:41.738Z,100334.91
2023-11-17T05:35:08.911Z,100331.00
2023-11-17T05:37:35.947Z,100330.09
2023-11-17T05:40:02.568Z,100330.41
2023-11-17T05:42:31.737Z,100332.78
2023-11-17T05:44:58.293Z,100329.78
2023-11-17T05:47:24.860Z,100332.34
2023-11-17T05:49:53.353Z,100346.63
2023-11-17T05:52:20.066Z,100358.50
2023-11-17T05:54:47.578Z,100349.34
2023-11-17T05:57:18.737Z,100354.78
2023-11-17T05:59:47.185Z,100356.72
2023-11-17T06:02:15.781Z,100355.50
2023-11-17T06:04:43.294Z,100357.31
2023-11-17T06:07:10.291Z,100349.94
2023-11-17T06:09:37.900Z,100352.03
2023-11-17T06:12:05.120Z,100352.66
2023-11-17T06:14:31.858Z,100346.34
2023-11-17T06:17:05.750Z,100353.69
2023-11-17T06:19:34.383Z,100349.78
2023-11-17T06:22:00.997Z,100355.81
2023-11-17T06:24:27.555Z,100351.13
2023-11-17T06:26:54.434Z,100345.84
2023-11-17T06:29:23.189Z,100346.28
2023-11-17T06:31:50.798Z,100354.22
2023-11-17T06:34:17.503Z,100366.91
2023-11-17T06:36:45.521Z,100359.81
2023-11-17T06:39:15.714Z,100366.28
2023-11-17T06:41:50.613Z,100364.13
2023-11-17T06:44:18.877Z,100363.66
2023-11-17T06:46:46.821Z,100376.16
2023-11-17T06:49:16.001Z,100386.06
2023-11-17T06:51:44.455Z,100396.72
2023-11-17T06:54:13.274Z,100402.09
2023-11-17T06:56:42.129Z,100386.53
2023-11-17T06:59:12.778Z,100385.59
2023-11-17T07:01:40.323Z,100391.91
2023-11-17T07:04:08.974Z,100403.19
2023-11-17T07:06:36.042Z,100404.41
2023-11-17T07:09:03.055Z,100411.19
2023-11-17T07:11:33.466Z,100405.44
2023-11-17T07:14:08.889Z,100414.19
2023-11-17T07:16:43.747Z,100415.34
2023-11-17T07:19:19.135Z,100412.06
2023-11-17T07:21:47.431Z,100414.63
2023-11-17T07:24:17.733Z,100422.09
2023-11-17T07:26:48.875Z,100434.25
2023-11-17T07:29:17.229Z,100437.88
2023-11-17T07:31:47.773Z,100436.63
2023-11-17T07:34:18.520Z,100432.56
2023-11-17T07:36:46.629Z,100438.38
2023-11-17T07:39:20.347Z,100439.88
2023-11-17T07:41:47.606Z,100447.06
2023-11-17T07:44:14.193Z,100458.78
2023-11-17T07:46:41.323Z,100452.34
2023-11-17T07:49:11.581Z,100458.31
2023-11-17T07:51:38.360Z,100471.97
2023-11-17T07:54:05.666Z,100467.81
2023-11-17T07:56:32.252Z,100477.09
2023-11-17T07:59:04.512Z,100473.66
2023-11-17T08:01:31.259Z,100481.03
2023-11-17T08:03:57.880Z,100476.44
2023-11-17T08:06:25.223Z,100482.88
2023-11-17T08:08:52.038Z,100494.88
2023-11-17T08:11:18.647Z,100493.59
2023-11-17T08:13:45.106Z,100488.53
2023-11-17T08:16:11.917Z,100481.63
2023-11-17T08:18:39.388Z,100493.47
2023-11-17T08:21:07.846Z,100496.56
2023-11-17T08:23:34.573Z,100502.38
2023-11-17T08:26:01.707Z,100510.91
2023-11-17T08:28:29.220Z,100514.13
2023-11-17T08:30:59.503Z,100522.50
2023-11-17T08:33:26.334Z,100518.72
2023-11-17T08:35:53.402Z,100519.91
2023-11-17T08:38:22.020Z,100507.69
2023-11-17T08:40:48.925Z,100510.53
2023-11-17T08:43:19.751Z,100515.16
2023-11-17T08:45:48.891Z,100513.09
2023-11-17T08:48:15.823Z,100513.22
2023-11-17T08:50:43.030Z,100515.56
2023-11-17T08:53:10.874Z,100527.78
2023-11-17T08:55:37.527Z,100528.66
2023-11-17T08:58:04.284Z,100529.31
2023-11-17T09:00:31.889Z,100526.84
2023-11-17T09:02:59.519Z,100526.94
2023-11-17T09:05:26.526Z,100534.28
2023-11-17T09:07:53.252Z,100541.84
2023-11-17T09:10:22.356Z,100537.19
2023-11-17T09:12:50.290Z,100536.44
2023-11-17T09:15:19.758Z,100538.22
2023-11-17T09:17:53.222Z,100536.75
2023-11-17T09:20:22.628Z,100540.97
2023-11-17T09:22:51.056Z,100543.19
2023-11-17T09:25:19.966Z,100542.38
2023-11-17T09:27:55.871Z,100537.59
2023-11-17T09:30:22.809Z,100539.88
2023-11-17T09:32:51.017Z,100538.81
2023-11-17T09:35:18.657Z,100532.31
2023-11-17T09:38:00.375Z,100526.84
2023-11-17T09:40:34.624Z,100520.63
2023-11-17T09:43:23.718Z,100538.81
2023-11-17T09:45:55.350Z,100540.56
2023-11-17T09:48:25.027Z,100545.13
2023-11-17T09:50:52.978Z,100536.72
2023-11-17T09:53:24.201Z,100546.97
2023-11-17T09:55:53.915Z,100541.38
2023-11-17T09:58:22.061Z,100535.22
2023-11-17T10:00:49.548Z,100528.97
2023-11-17T10:03:20.509Z,100539.88
2023-11-17T10:05:49.007Z,100541.91
2023-11-17T10:08:17.534Z,100539.78
2023-11-17T10:10:46.757Z,100535.03
2023-11-17T10:13:15.332Z,100524.47
2023-11-17T10:15:45.783Z,100528.53
2023-11-17T10:18:17.037Z,100522.78
2023-11-17T10:20:44.474Z,100523.22
2023-11-17T10:23:11.669Z,100520.06
2023-11-17T10:25:39.791Z,100513.28
2023-11-17T10:28:06.492Z,100509.88
2023-11-17T10:30:42.620Z,100502.88
2023-11-17T10:33:14.843Z,100505.41
2023-11-17T10:36:13.599Z,100508.97
2023-11-17T10:38:42.063Z,100513.97
2023-11-17T10:41:13.190Z,100507.66
2023-11-17T10:43:53.868Z,100512.56
2023-11-17T10:46:28.431Z,100510.31
2023-11-17T10:49:01.880Z,100505.34
2023-11-17T10:51:29.347Z,100503.16
2023-11-17T10:54:15.140Z,100504.38
2023-11-17T10:56:43.237Z,100497.59
2023-11-17T10:59:10.804Z,100496.38
2023-11-17T11:01:38.304Z,100497.78
2023-11-17T11:04:16.245Z,100495.19
2023-11-17T11:06:46.578Z,100492.88
2023-11-17T11:09:19.663Z,100493.38
2023-11-17T11:11:52.311Z,100489.34
2023-11-17T11:14:21.382Z,100477.19
2023-11-17T11:16:48.899Z,100478.97
2023-11-17T11:19:24.066Z,100477.22
2023-11-17T11:22:02.609Z,100480.63
2023-11-17T11:24:39.497Z,100476.88
2023-11-17T11:27:08.168Z,100465.53
2023-11-17T11:29:39.784Z,100469.13
2023-11-17T11:32:07.457Z,100461.41
2023-11-17T11:34:36.053Z,100463.06
2023-11-17T11:37:04.529Z,100462.06
2023-11-17T11:39:32.528Z,100477.06
2023-11-17T11:42:01.499Z,100476.59
2023-11-17T11:44:28.299Z,100478.59
2023-11-17T11:46:58.987Z,100471.78
2023-11-17T11:49:26.080Z,100481.09
2023-11-17T11:51:58.813Z,100477.31
2023-11-17T11:54:25.522Z,100473.91
2023-11-17T11:56:52.138Z,100465.22
2023-11-17T11:59:18.642Z,100483.97
2023-11-17T12:01:49.164Z,100482.50
2023-11-17T12:04:15.971Z,100476.22
2023-11-17T12:06:47.204Z,100464.06
2023-11-17T12:09:21.761Z,100468.88
2023-11-17T12:11:51.093Z,100461.19
2023-11-17T12:14:45.362Z,100462.34
2023-11-17T12:17:12.971Z,100463.16
2023-11-17T12:19:39.581Z,100472.84
2023-11-17T12:22:06.289Z,100468.00
2023-11-17T12:24:36.722Z,100478.91
2023-11-17T12:27:06.070Z,100463.59
2023-11-17T12:29:34.088Z,100466.91
2023-11-17T12:32:04.600Z,100460.81
2023-11-17T12:34:31.671Z,100466.03
2023-11-17T12:37:01.636Z,100460.56
2023-11-17T12:39:42.441Z,100463.16
2023-11-17T12:42:16.870Z,100470.84
2023-11-17T12:44:43.533Z,100457.94
2023-11-17T12:47:21.828Z,100470.16
2023-11-17T12:49:55.853Z,100469.06
2023-11-17T12:52:23.636Z,100466.38
2023-11-17T12:55:10.715Z,100469.97
2023-11-17T12:57:38.517Z,100460.19
2023-11-17T13:00:17.326Z,100456.91
2023-11-17T13:02:44.543Z,100453.47
2023-11-17T13:05:13.167Z,100461.91
2023-11-17T13:07:40.488Z,100459.22
2023-11-17T13:10:12.297Z,100450.72
2023-11-17T13:12:40.230Z,100454.09
2023-11-17T13:15:10.458Z,100459.22
2023-11-17T13:17:37.660Z,100468.28
2023-11-17T13:20:14.672Z,100470.69
2023-11-17T13:22:45.364Z,100479.44
2023-11-17T13:25:13.090Z,100468.72
2023-11-17T13:27:40.783Z,100465.34
2023-11-17T13:30:11.273Z,100462.72
2023-11-17T13:33:04.117Z,100475.56
2023-11-17T13:35:31.721Z,100474.13
2023-11-17T13:38:05.412Z,100490.53
2023-11-17T13:40:34.584Z,100485.44
2023-11-17T13:43:09.961Z,100493.75
2023-11-17T13:45:39.448Z,100494.56
2023-11-17T13:48:09.385Z,100489.44
2023-11-17T13:50:36.484Z,100494.13
2023-11-17T13:53:03.713Z,100497.94
2023-11-17T13:55:30.259Z,100495.63
2023-11-17T13:57:57.453Z,100501.41
2023-11-17T14:00:27.192Z,100497.56
2023-11-17T14:02:54.430Z,100499.81
2023-11-17T14:05:21.157Z,100505.50
2023-11-17T14:07:49.145Z,100513.81
2023-11-17T14:10:18.235Z,100502.41
2023-11-17T14:12:47.267Z,100497.44
2023-11-17T14:15:15.073Z,100518.03
2023-11-17T14:17:43.247Z,100524.41
2023-11-17T14:20:17.003Z,100526.44
2023-11-17T14:22:43.713Z,100528.19
2023-11-17T14:25:11.968Z,100527.69
2023-11-17T14:27:41.977Z,100542.03
2023-11-17T14:30:09.300Z,100539.88
2023-11-17T14:32:36.071Z,100545.28
2023-11-17T14:35:02.757Z,100542.00
2023-11-17T14:37:30.061Z,100547.97
2023-11-17T14:39:56.814Z,100539.31
2023-11-17T14:42:23.537Z,100533.75
2023-11-17T14:44:50.441Z,100543.13
2023-11-17T14:47:17.755Z,100545.31
2023-11-17T14:49:44.572Z,100557.06
2023-11-17T14:52:11.573Z,100563.28
2023-11-17T14:54:38.160Z,100563.53
2023-11-17T14:57:05.963Z,100575.31
2023-11-17T14:59:32.717Z,100581.38
2023-11-17T15:01:59.361Z,100589.75
2023-11-17T15:04:26.946Z,100582.66
2023-11-17T15:06:55.265Z,100581.66
2023-11-17T15:09:22.137Z,100570.66
2023-11-17T15:11:49.000Z,100580.53
2023-11-17T15:14:21.381Z,100589.00
2023-11-17T15:16:50.638Z,100594.47
2023-11-17T15:19:20.322Z,100606.47
2023-11-17T15:21:48.224Z,100607.81
2023-11-17T15:24:21.941Z,100594.16
2023-11-17T15:26:50.449Z,100602.75
2023-11-17T15:29:17.190Z,100616.59
2023-11-17T15:31:51.866Z,100622.56
2023-11-17T15:34:21.449Z,100632.63
2023-11-17T15:36:48.194Z,100640.81
2023-11-17T15:39:17.253Z,100648.94
2023-11-17T15:41:44.490Z,100648.25
2023-11-17T15:44:12.640Z,100650.06
2023-11-17T15:46:40.607Z,100644.56
2023-11-17T15:49:10.983Z,100655.59
2023-11-17T15:51:38.607Z,100654.25
2023-11-17T15:54:05.466Z,100645.81
2023-11-17T15:56:32.291Z,100653.47
2023-11-17T15:59:02.039Z,100656.84
2023-11-17T16:01:29.095Z,100669.31
2023-11-17T16:03:56.037Z,100669.63
2023-11-17T16:06:24.370Z,100671.66
2023-11-17T16:08:50.956Z,100683.56
2023-11-17T16:11:20.404Z,100696.25
2023-11-17T16:13:49.238Z,100692.94
2023-11-17T16:16:19.719Z,100694.66
2023-11-17T16:18:50.380Z,100690.94
2023-11-17T16:21:19.074Z,100704.41
2023-11-17T16:23:46.957Z,100716.97
2023-11-17T16:26:13.795Z,100725.00
2023-11-17T16:28:41.265Z,100721.41
2023-11-17T16:31:11.950Z,100729.81
2023-11-17T16:33:39.727Z,100735.69
2023-11-17T16:36:07.381Z,100738.59
2023-11-17T16:38:35.119Z,100749.69
2023-11-17T16:41:01.957Z,100744.81
2023-11-17T16:43:28.975Z,100753.75
2023-11-17T16:45:55.546Z,100763.44
2023-11-17T16:48:22.962Z,100767.69
2023-11-17T16:50:49.630Z,100771.59
2023-11-17T16:53:19.039Z,100779.50
2023-11-17T16:55:53.052Z,100783.78
2023-11-17T16:58:20.251Z,100786.88
2023-11-17T17:00:51.240Z,100786.66
2023-11-17T17:03:22.483Z,100795.44
2023-11-17T17:05:50.234Z,100785.16
2023-11-17T17:08:17.306Z,100795.75
2023-11-17T17:10:45.379Z,100802.31
2023-11-17T17:13:13.635Z,100809.03
2023-11-17T17:15:41.917Z,100816.91
2023-11-17T17:18:11.149Z,100814.59
2023-11-17T17:20:39.338Z,100825.41
2023-11-17T17:23:08.318Z,100827.75
2023-11-17T17:25:40.446Z,100829.78
2023-11-17T17:28:11.706Z,100826.19
2023-11-17T17:30:38.594Z,100836.00
2023-11-17T17:33:05.329Z,100847.22
2023-11-17T17:35:35.732Z,100853.97
2023-11-17T17:38:03.292Z,100863.91
2023-11-17T17:40:29.999Z,100860.16
2023-11-17T17:42:57.171Z,100859.50
2023-11-17T17:45:28.007Z,100862.31
2023-11-17T17:47:57.801Z,100866.72
2023-11-17T17:50:29.042Z,100867.47
2023-11-17T17:52:58.555Z,100870.06
2023-11-17T17:55:27.485Z,100879.47
2023-11-17T17:57:54.897Z,100881.63
2023-11-17T18:00:23.607Z,100880.44
2023-11-17T18:02:58.381Z,100902.13
2023-11-17T18:05:25.834Z,100908.13
2023-11-17T18:07:52.882Z,100917.94
2023-11-17T18:10:20.019Z,100914.94
2023-11-17T18:12:47.379Z,100915.78
2023-11-17T18:15:15.977Z,100922.59
2023-11-17T18:17:43.467Z,100917.53
2023-11-17T18:20:14.166Z,100927.03
2023-11-17T18:22:49.079Z,100931.16
2023-11-17T18:25:20.343Z,100931.53
2023-11-17T18:27:49.312Z,100942.06
2023-11-17T18:30:17.315Z,100935.84
2023-11-17T18:32:44.767Z,100952.38
2023-11-17T18:35:13.200Z,100941.91
2023-11-17T18:37:50.682Z,100960.44
2023-11-17T18:40:26.613Z,100954.09
2023-11-17T18:42:54.444Z,100967.66
2023-11-17T18:45:22.093Z,100971.78
2023-11-17T18:47:49.901Z,100980.91
2023-11-17T18:50:17.886Z,100981.72
2023-11-17T18:52:44.494Z,100985.50
2023-11-17T18:55:14.455Z,100983.19
2023-11-17T18:57:41.645Z,100993.00
2023-11-17T19:00:22.045Z,100993.97
2023-11-17T19:02:53.298Z,101000.69
2023-11-17T19:05:20.717Z,101001.38
2023-11-17T19:07:49.534Z,101004.59
2023-11-17T19:10:20.324Z,101002.66
2023-11-17T19:12:48.723Z,101007.34
2023-11-17T19:15:15.666Z,101009.31
2023-11-17T19:17:42.380Z,101004.38
2023-11-17T19:20:13.757Z,101002.72
2023-11-17T19:22:41.207Z,101013.72
2023-11-17T19:25:11.092Z,101013.25
2023-11-17T19:27:40.925Z,101015.78
2023-11-17T19:30:14.631Z,101015.59
2023-11-17T19:32:45.905Z,101024.63
2023-11-17T19:35:13.101Z,101023.13
2023-11-17T19:37:43.232Z,101029.59
2023-11-17T19:40:12.788Z,101030.69
2023-11-17T19:42:40.412Z,101041.78
2023-11-17T19:45:08.601Z,101048.94
2023-11-17T19:47:36.284Z,101042.03
2023-11-17T19:50:04.143Z,101054.66
2023-11-17T19:52:31.942Z,101051.34
2023-11-17T19:54:59.271Z,101054.38
2023-11-17T19:57:27.705Z,101044.53
2023-11-17T19:59:55.888Z,101048.59
2023-11-17T20:02:22.490Z,101039.66
2023-11-17T20:04:49.014Z,101039.50
2023-11-17T20:07:16.628Z,101042.41
2023-11-17T20:09:44.842Z,101046.63
2023-11-17T20:12:11.933Z,101056.94
2023-11-17T20:14:39.593Z,101063.59
2023-11-17T20:17:06.521Z,101071.63
2023-11-17T20:19:33.163Z,101070.28
2023-11-17T20:22:00.230Z,101070.63
2023-11-17T20:24:26.797Z,101064.00
2023-11-17T20:26:53.293Z,101065.19
2023-11-17T20:29:21.549Z,101061.25
2023-11-17T20:31:49.457Z,101082.41
2023-11-17T20:34:17.775Z,101066.56
2023-11-17T20:36:44.400Z,101079.41
2023-11-17T20:39:19.808Z,101073.03
2023-11-17T20:41:48.300Z,101074.25
2023-11-17T20:44:22.505Z,101075.47
2023-11-17T20:46:50.377Z,101078.19
2023-11-17T20:49:17.945Z,101082.28
2023-11-17T20:51:47.067Z,101083.34
2023-11-17T20:54:17.594Z,101080.94
2023-11-17T20:56:44.780Z,101084.25
2023-11-17T20:59:15.022Z,101083.78
2023-11-17T21:01:42.575Z,101105.66
2023-11-17T21:04:14.665Z,101099.03
2023-11-17T21:06:43.145Z,101096.31
2023-11-17T21:09:14.045Z,101102.34
2023-11-17T21:11:46.585Z,101104.91
2023-11-17T21:14:13.170Z,101104.41
2023-11-17T21:16:40.157Z,101115.53
2023-11-17T21:19:06.731Z,101118.91
2023-11-17T21:21:34.301Z,101122.41
2023-11-17T21:24:03.320Z,101137.38
2023-11-17T21:26:30.102Z,101129.19
2023-11-17T21:29:00.445Z,101139.38
2023-11-17T21:31:34.605Z,101142.22
2023-11-17T21:34:04.141Z,101141.94
2023-11-17T21:36:30.795Z,101143.78
2023-11-17T21:38:59.455Z,101139.34
2023-11-17T21:41:29.971Z,101147.72
2023-11-17T21:43:57.351Z,101156.34
2023-11-17T21:46:24.007Z,101156.25
2023-11-17T21:48:50.513Z,101164.06
2023-11-17T21:51:16.967Z,101167.13
2023-11-17T21:53:43.480Z,101179.53
2023-11-17T21:56:09.939Z,101185.63
2023-11-17T21:58:36.381Z,101186.03
2023-11-17T22:01:05.607Z,101191.03
2023-11-17T22:03:32.259Z,101183.03
2023-11-17T22:05:58.734Z,101183.63
2023-11-17T22:08:25.237Z,101176.63
2023-11-17T22:10:51.708Z,101183.16
2023-11-17T22:13:19.189Z,101176.56
2023-11-17T22:15:45.746Z,101192.78
2023-11-17T22:18:12.224Z,101192.63
2023-11-17T22:20:38.686Z,101197.56
2023-11-17T22:23:05.804Z,101205.41
2023-11-17T22:25:32.328Z,101197.50
2023-11-17T22:28:00.344Z,101207.09
2023-11-17T22:30:27.457Z,101213.09
2023-11-17T22:32:55.226Z,101221.97
2023-11-17T22:35:23.434Z,101224.59
2023-11-17T22:37:50.987Z,101216.97
2023-11-17T22:40:18.775Z,101223.44
2023-11-17T22:42:46.575Z,101207.88
2023-11-17T22:45:17.239Z,101223.31
2023-11-17T22:47:47.593Z,101232.66
2023-11-17T22:50:17.281Z,101238.25
2023-11-17T22:52:44.748Z,101249.66
2023-11-17T22:55:11.471Z,101249.28
2023-11-17T22:57:38.310Z,101258.56
2023-11-17T23:00:16.460Z,101271.75
2023-11-17T23:02:45.912Z,101268.69
2023-11-17T23:05:12.959Z,101272.63
2023-11-17T23:07:41.101Z,101274.09
2023-11-17T23:10:10.799Z,101272.16
2023-11-17T23:12:38.920Z,101265.00
2023-11-17T23:15:08.555Z,101261.13
2023-11-17T23:17:35.325Z,101271.22
2023-11-17T23:20:02.098Z,101268.41
2023-11-17T23:22:28.634Z,101266.53
2023-11-17T23:24:55.200Z,101282.91
2023-11-17T23:27:21.692Z,101295.25
2023-11-17T23:29:48.259Z,101285.28
2023-11-17T23:32:14.938Z,101294.44
2023-11-17T23:34:41.691Z,101291.75
2023-11-17T23:37:08.619Z,101282.72
2023-11-17T23:39:35.095Z,101281.50
2023-11-17T23:42:06.081Z,101278.13
2023-11-17T23:44:32.663Z,101269.31
2023-11-17T23:46:59.257Z,101273.56
2023-11-17T23:49:27.015Z,101269.41
2023-11-17T23:51:53.575Z,101275.28
2023-11-17T23:54:20.036Z,101278.28
2023-11-17T23:56:46.503Z,101273.53
2023-11-17T23:59:13.012Z,101287.84
